createdAt,value
2023-10-08T00:01:15.461Z,59.40
2023-10-08T00:03:50.528Z,60.20
2023-10-08T00:06:21.213Z,60.10
2023-10-08T00:08:49.942Z,60.10
2023-10-08T00:11:18.774Z,61.00
2023-10-08T00:13:49.791Z,60.20
2023-10-08T00:16:19.718Z,59.80
2023-10-08T00:18:52.110Z,61.20
2023-10-08T00:21:27.713Z,61.80
2023-10-08T00:23:59.529Z,62.10
2023-10-08T00:26:31.264Z,63.90
2023-10-08T00:29:01.741Z,65.70
2023-10-08T00:31:33.560Z,66.20
2023-10-08T00:34:06.102Z,65.60
2023-10-08T00:36:36.873Z,65.00
2023-10-08T00:39:10.306Z,63.40
2023-10-08T00:41:39.502Z,63.00
2023-10-08T00:44:10.624Z,62.80
2023-10-08T00:46:43.904Z,62.10
2023-10-08T00:49:25.522Z,62.50
2023-10-08T00:52:04.847Z,61.40
2023-10-08T00:54:35.748Z,60.40
2023-10-08T00:57:07.229Z,59.40
2023-10-08T00:59:43.666Z,60.30
2023-10-08T01:02:15.998Z,59.70
2023-10-08T01:04:46.230Z,61.30
2023-10-08T01:07:18.218Z,59.70
2023-10-08T01:09:51.506Z,58.70
2023-10-08T01:12:25.095Z,58.80
2023-10-08T01:14:55.181Z,58.80
2023-10-08T01:17:28.050Z,58.20
2023-10-08T01:20:09.513Z,58.50
2023-10-08T01:22:40.427Z,57.70
2023-10-08T01:25:11.622Z,57.50
2023-10-08T01:27:40.969Z,57.70
2023-10-08T01:30:19.344Z,57.30
2023-10-08T01:32:47.953Z,57.30
2023-10-08T01:35:24.310Z,56.40
2023-10-08T01:37:57.790Z,56.20
2023-10-08T01:40:26.226Z,56.40
2023-10-08T01:42:54.689Z,56.80
2023-10-08T01:45:26.100Z,56.60
2023-10-08T01:47:56.442Z,57.10
2023-10-08T01:50:26.292Z,57.00
2023-10-08T01:52:56.155Z,56.80
2023-10-08T01:55:24.900Z,57.10
2023-10-08T01:57:53.775Z,56.90
2023-10-08T02:00:22.993Z,55.90
2023-10-08T02:02:52.918Z,56.10
2023-10-08T02:05:22.436Z,56.50
2023-10-08T02:07:52.290Z,56.40
2023-10-08T02:10:23.585Z,56.60
2023-10-08T02:12:52.019Z,58.50
2023-10-08T02:15:20.504Z,58.40
2023-10-08T02:17:50.469Z,57.00
2023-10-08T02:20:20.217Z,57.80
2023-10-08T02:22:50.266Z,57.50
2023-10-08T02:25:19.600Z,57.50
2023-10-08T02:27:49.761Z,56.40
2023-10-08T02:30:19.017Z,56.60
2023-10-08T02:32:47.731Z,56.70
2023-10-08T02:35:16.313Z,57.70
2023-10-08T02:37:46.964Z,57.50
2023-10-08T02:40:20.837Z,57.40
2023-10-08T02:42:50.796Z,57.50
2023-10-08T02:45:19.506Z,57.30
2023-10-08T02:47:48.229Z,56.90
2023-10-08T02:50:18.789Z,56.50
2023-10-08T02:52:47.360Z,56.70
2023-10-08T02:55:28.776Z,56.20
2023-10-08T02:57:59.333Z,56.00
2023-10-08T03:00:31.122Z,56.50
2023-10-08T03:03:04.029Z,56.70
2023-10-08T03:05:37.509Z,55.50
2023-10-08T03:08:11.902Z,55.40
2023-10-08T03:10:42.554Z,55.50
2023-10-08T03:13:15.599Z,55.10
2023-10-08T03:15:59.193Z,54.80
2023-10-08T03:18:36.789Z,53.90
2023-10-08T03:21:06.908Z,54.70
2023-10-08T03:23:36.118Z,54.70
2023-10-08T03:26:12.328Z,53.60
2023-10-08T03:28:43.183Z,54.80
2023-10-08T03:31:19.084Z,55.00
2023-10-08T03:33:50.563Z,55.00
2023-10-08T03:36:23.735Z,54.40
2023-10-08T03:38:55.371Z,55.30
2023-10-08T03:41:30.909Z,55.00
2023-10-08T03:44:06.724Z,55.50
2023-10-08T03:46:40.667Z,55.60
2023-10-08T03:49:16.285Z,56.20
2023-10-08T03:51:44.897Z,55.70
2023-10-08T03:54:21.951Z,57.00
2023-10-08T03:56:52.358Z,57.20
2023-10-08T03:59:31.444Z,58.50
2023-10-08T04:02:11.106Z,59.20
2023-10-08T04:04:52.435Z,60.30
2023-10-08T04:07:30.687Z,60.60
2023-10-08T04:10:28.228Z,61.50
2023-10-08T04:12:56.786Z,62.40
2023-10-08T04:15:26.659Z,60.50
2023-10-08T04:17:55.342Z,62.70
2023-10-08T04:20:37.785Z,63.40
2023-10-08T04:23:14.620Z,63.00
2023-10-08T04:25:44.359Z,61.00
2023-10-08T04:28:15.566Z,60.50
2023-10-08T04:30:48.691Z,59.70
2023-10-08T04:33:17.511Z,60.00
2023-10-08T04:35:52.547Z,59.80
2023-10-08T04:38:24.249Z,61.00
2023-10-08T04:40:53.448Z,60.90
2023-10-08T04:43:26.780Z,61.70
2023-10-08T04:45:58.337Z,62.00
2023-10-08T04:48:28.565Z,62.00
2023-10-08T04:51:00.385Z,62.90
2023-10-08T04:53:33.896Z,62.80
2023-10-08T04:56:07.335Z,62.10
2023-10-08T04:58:38.101Z,61.00
2023-10-08T05:01:22.138Z,61.70
2023-10-08T05:04:25.777Z,62.20
2023-10-08T05:10:12.442Z,62.30
2023-10-08T05:12:47.782Z,62.70
2023-10-08T05:15:34.487Z,62.20
2023-10-08T05:21:16.386Z,63.40
2023-10-08T05:24:10.554Z,62.90
2023-10-08T05:27:00.659Z,62.90
2023-10-08T05:29:53.306Z,63.20
2023-10-08T05:32:45.605Z,61.90
2023-10-08T05:35:31.296Z,60.00
2023-10-08T05:38:14.680Z,58.40
2023-10-08T05:41:01.420Z,58.00
2023-10-08T05:43:57.037Z,57.90
2023-10-08T05:46:43.135Z,58.90
2023-10-08T05:49:29.038Z,59.50
2023-10-08T05:52:26.159Z,59.10
2023-10-08T05:55:16.983Z,59.20
2023-10-08T05:57:53.130Z,60.30
2023-10-08T06:00:47.902Z,61.00
2023-10-08T06:03:44.593Z,59.90
2023-10-08T06:06:37.068Z,59.70
2023-10-08T06:09:21.150Z,60.30
2023-10-08T06:12:09.401Z,59.80
2023-10-08T06:14:55.705Z,59.30
2023-10-08T06:17:58.812Z,58.40
2023-10-08T06:20:27.844Z,58.20
2023-10-08T06:23:02.778Z,57.70
2023-10-08T06:25:31.643Z,57.90
2023-10-08T06:28:00.298Z,57.90
2023-10-08T06:30:31.256Z,58.40
2023-10-08T06:33:02.304Z,57.40
2023-10-08T06:35:30.869Z,57.40
2023-10-08T06:38:02.542Z,56.60
2023-10-08T06:40:50.725Z,57.10
2023-10-08T06:43:23.218Z,56.80
2023-10-08T06:45:54.353Z,57.30
2023-10-08T06:48:25.446Z,57.90
2023-10-08T06:50:58.968Z,57.30
2023-10-08T06:53:31.068Z,57.20
2023-10-08T06:56:05.013Z,56.60
2023-10-08T06:58:34.430Z,57.10
2023-10-08T07:01:06.097Z,56.90
2023-10-08T07:03:36.677Z,57.40
2023-10-08T07:06:17.684Z,58.50
2023-10-08T07:08:47.888Z,58.40
2023-10-08T07:11:19.283Z,58.80
2023-10-08T07:13:48.079Z,57.90
2023-10-08T07:16:18.787Z,58.30
2023-10-08T07:18:52.887Z,58.50
2023-10-08T07:21:29.755Z,58.60
2023-10-08T07:23:59.151Z,58.00
2023-10-08T07:26:37.493Z,57.60
2023-10-08T07:29:09.926Z,57.00
2023-10-08T07:31:42.660Z,57.20
2023-10-08T07:34:19.409Z,58.10
2023-10-08T07:36:50.505Z,57.70
2023-10-08T07:39:27.171Z,57.60
2023-10-08T07:41:56.656Z,58.20
2023-10-08T07:44:26.485Z,57.90
2023-10-08T07:46:58.927Z,58.20
2023-10-08T07:49:31.088Z,58.20
2023-10-08T07:52:00.299Z,58.30
2023-10-08T07:54:33.029Z,59.20
2023-10-08T07:57:10.003Z,60.10
2023-10-08T07:59:40.046Z,59.00
2023-10-08T08:02:11.126Z,58.60
2023-10-08T08:04:46.549Z,58.90
2023-10-08T08:07:17.542Z,59.20
2023-10-08T08:09:52.221Z,58.20
2023-10-08T08:12:24.980Z,57.70
2023-10-08T08:14:54.174Z,58.10
2023-10-08T08:17:23.812Z,59.10
2023-10-08T08:19:54.763Z,58.30
2023-10-08T08:22:32.533Z,59.90
2023-10-08T08:25:07.628Z,58.70
2023-10-08T08:27:39.813Z,59.00
2023-10-08T08:30:17.077Z,59.00
2023-10-08T08:32:52.712Z,57.90
2023-10-08T08:35:24.115Z,58.10
2023-10-08T08:37:52.451Z,57.80
2023-10-08T08:40:22.911Z,56.70
2023-10-08T08:42:54.068Z,56.40
2023-10-08T08:45:23.471Z,55.70
2023-10-08T08:47:53.048Z,56.90
2023-10-08T08:50:26.728Z,55.30
2023-10-08T08:52:55.141Z,55.60
2023-10-08T08:55:26.590Z,55.00
2023-10-08T08:57:56.776Z,53.50
2023-10-08T09:00:29.732Z,52.90
2023-10-08T09:02:58.580Z,51.60
2023-10-08T09:05:34.911Z,53.10
2023-10-08T09:08:06.191Z,54.30
2023-10-08T09:10:39.386Z,54.10
2023-10-08T09:13:10.636Z,52.80
2023-10-08T09:15:40.617Z,50.90
2023-10-08T09:18:10.490Z,50.80
2023-10-08T09:20:44.441Z,49.20
2023-10-08T09:23:14.557Z,49.10
2023-10-08T09:25:44.869Z,49.50
2023-10-08T09:28:14.800Z,49.00
2023-10-08T09:30:47.301Z,48.60
2023-10-08T09:33:17.015Z,48.30
2023-10-08T09:35:48.595Z,47.00
2023-10-08T09:38:24.339Z,46.80
2023-10-08T09:40:55.389Z,46.60
2023-10-08T09:43:25.251Z,47.00
2023-10-08T09:45:57.481Z,46.70
2023-10-08T09:48:28.682Z,45.80
2023-10-08T09:51:01.775Z,43.70
2023-10-08T09:53:43.344Z,43.50
2023-10-08T09:56:16.684Z,44.70
2023-10-08T09:58:46.988Z,44.90
2023-10-08T10:01:15.790Z,45.60
2023-10-08T10:03:44.457Z,46.40
2023-10-08T10:06:19.720Z,46.20
2023-10-08T10:08:50.458Z,46.00
2023-10-08T10:11:18.913Z,45.40
2023-10-08T10:14:01.840Z,42.90
2023-10-08T10:16:30.546Z,44.80
2023-10-08T10:19:00.602Z,44.60
2023-10-08T10:21:33.951Z,43.80
2023-10-08T10:24:07.105Z,44.30
2023-10-08T10:26:37.149Z,43.80
2023-10-08T10:29:27.716Z,43.50
2023-10-08T10:31:58.377Z,45.60
2023-10-08T10:34:29.396Z,44.60
2023-10-08T10:37:04.434Z,42.20
2023-10-08T10:39:40.954Z,43.50
2023-10-08T10:42:21.845Z,42.40
2023-10-08T10:44:51.707Z,42.50
2023-10-08T10:47:29.731Z,42.40
2023-10-08T10:50:19.886Z,42.40
2023-10-08T10:52:54.592Z,42.80
2023-10-08T10:55:23.956Z,43.20
2023-10-08T10:57:58.560Z,41.80
2023-10-08T11:00:44.549Z,42.70
2023-10-08T11:03:18.548Z,42.40
2023-10-08T11:05:52.389Z,41.70
2023-10-08T11:08:24.527Z,40.80
2023-10-08T11:10:59.709Z,42.40
2023-10-08T11:13:38.479Z,42.70
2023-10-08T11:16:08.801Z,42.90
2023-10-08T11:18:39.258Z,43.10
2023-10-08T11:21:17.209Z,41.10
2023-10-08T11:23:53.981Z,42.10
2023-10-08T11:26:33.462Z,41.40
2023-10-08T11:29:04.266Z,39.80
2023-10-08T11:31:35.146Z,37.30
2023-10-08T11:34:10.528Z,38.10
2023-10-08T11:36:50.508Z,39.20
2023-10-08T11:39:23.820Z,38.30
2023-10-08T11:42:04.072Z,39.40
2023-10-08T11:44:36.997Z,39.10
2023-10-08T11:47:13.585Z,40.00
2023-10-08T11:49:49.145Z,39.00
2023-10-08T11:52:17.992Z,36.70
2023-10-08T11:54:49.677Z,38.40
2023-10-08T11:57:24.161Z,38.70
2023-10-08T11:59:56.382Z,38.90
2023-10-08T12:02:28.565Z,38.80
2023-10-08T12:04:58.971Z,38.40
2023-10-08T12:07:29.195Z,39.60
2023-10-08T12:09:59.194Z,36.40
2023-10-08T12:12:28.927Z,37.20
2023-10-08T12:14:57.458Z,37.60
2023-10-08T12:17:38.960Z,38.80
2023-10-08T12:20:23.947Z,37.40
2023-10-08T12:22:53.505Z,36.60
2023-10-08T12:25:23.969Z,38.10
2023-10-08T12:27:52.318Z,37.90
2023-10-08T12:30:31.559Z,37.20
2023-10-08T12:33:01.575Z,37.10
2023-10-08T12:35:30.890Z,38.80
2023-10-08T12:37:59.339Z,37.30
2023-10-08T12:40:43.250Z,35.10
2023-10-08T12:43:12.293Z,35.80
2023-10-08T12:45:40.789Z,35.20
2023-10-08T12:48:09.738Z,35.90
2023-10-08T12:50:44.665Z,35.90
2023-10-08T12:53:13.579Z,35.90
2023-10-08T12:55:43.390Z,36.20
2023-10-08T12:58:11.948Z,36.50
2023-10-08T13:00:42.533Z,36.30
2023-10-08T13:03:16.788Z,36.40
2023-10-08T13:05:46.544Z,37.10
2023-10-08T13:08:15.307Z,36.30
2023-10-08T13:10:45.528Z,36.10
2023-10-08T13:13:14.718Z,36.70
2023-10-08T13:15:44.528Z,37.00
2023-10-08T13:18:13.111Z,37.30
2023-10-08T13:20:46.115Z,37.50
2023-10-08T13:23:14.657Z,37.80
2023-10-08T13:25:47.755Z,36.10
2023-10-08T13:28:16.169Z,36.50
2023-10-08T13:30:44.706Z,36.10
2023-10-08T13:33:14.404Z,35.50
2023-10-08T13:35:44.791Z,35.00
2023-10-08T13:38:15.003Z,36.20
2023-10-08T13:41:03.027Z,35.80
2023-10-08T13:43:37.534Z,36.40
2023-10-08T13:46:09.610Z,36.80
2023-10-08T13:48:38.502Z,36.20
2023-10-08T13:51:14.696Z,35.90
2023-10-08T13:53:46.273Z,35.50
2023-10-08T13:56:14.873Z,35.80
2023-10-08T13:58:47.386Z,35.60
2023-10-08T14:01:22.208Z,35.10
2023-10-08T14:03:54.540Z,35.90
2023-10-08T14:06:23.366Z,37.90
2023-10-08T14:08:53.638Z,38.00
2023-10-08T14:11:24.891Z,37.50
2023-10-08T14:13:55.137Z,36.50
2023-10-08T14:16:24.673Z,36.40
2023-10-08T14:18:56.023Z,35.80
2023-10-08T14:21:25.996Z,36.20
2023-10-08T14:23:54.491Z,35.50
2023-10-08T14:26:36.007Z,35.60
2023-10-08T14:29:11.962Z,35.80
2023-10-08T14:31:40.924Z,36.10
2023-10-08T14:34:20.300Z,34.70
2023-10-08T14:37:06.909Z,35.10
2023-10-08T14:39:53.761Z,36.40
2023-10-08T14:42:40.380Z,36.10
2023-10-08T14:45:14.642Z,36.40
2023-10-08T14:47:43.367Z,36.50
2023-10-08T14:50:17.393Z,36.60
2023-10-08T14:52:47.826Z,34.80
2023-10-08T14:55:17.140Z,35.30
2023-10-08T14:57:47.057Z,35.00
2023-10-08T15:00:17.280Z,34.80
2023-10-08T15:02:45.951Z,35.10
2023-10-08T15:05:15.372Z,35.50
2023-10-08T15:07:43.796Z,36.10
2023-10-08T15:10:14.219Z,35.50
2023-10-08T15:12:42.594Z,35.90
2023-10-08T15:15:15.056Z,36.20
2023-10-08T15:17:47.464Z,36.70
2023-10-08T15:20:18.093Z,36.60
2023-10-08T15:22:47.891Z,36.70
2023-10-08T15:25:18.795Z,37.00
2023-10-08T15:27:49.190Z,36.40
2023-10-08T15:30:20.615Z,37.40
2023-10-08T15:32:55.492Z,37.30
2023-10-08T15:35:25.320Z,37.20
2023-10-08T15:37:55.092Z,37.30
2023-10-08T15:40:23.990Z,38.20
2023-10-08T15:42:54.990Z,39.00
2023-10-08T15:45:25.232Z,38.10
2023-10-08T15:47:56.160Z,38.60
2023-10-08T15:50:26.556Z,39.20
2023-10-08T15:52:57.181Z,38.80
2023-10-08T15:55:27.047Z,38.90
2023-10-08T15:57:58.224Z,39.00
2023-10-08T16:00:29.571Z,38.30
2023-10-08T16:02:59.442Z,38.80
2023-10-08T16:05:28.015Z,39.30
2023-10-08T16:07:59.869Z,39.70
2023-10-08T16:10:29.012Z,40.00
2023-10-08T16:12:57.957Z,39.30
2023-10-08T16:15:26.775Z,39.40
2023-10-08T16:17:57.488Z,39.60
2023-10-08T16:20:27.753Z,40.00
2023-10-08T16:22:56.183Z,40.30
2023-10-08T16:25:24.770Z,40.10
2023-10-08T16:27:54.551Z,40.30
2023-10-08T16:30:28.678Z,40.50
2023-10-08T16:33:00.564Z,40.30
2023-10-08T16:35:31.959Z,40.50
2023-10-08T16:38:00.382Z,41.50
2023-10-08T16:40:28.943Z,42.50
2023-10-08T16:42:57.415Z,42.50
2023-10-08T16:45:26.255Z,42.00
2023-10-08T16:47:54.793Z,42.40
2023-10-08T16:50:23.355Z,42.80
2023-10-08T16:52:55.708Z,44.00
2023-10-08T16:55:26.321Z,43.10
2023-10-08T16:57:55.480Z,43.20
2023-10-08T17:00:24.353Z,44.00
2023-10-08T17:02:53.220Z,44.00
2023-10-08T17:05:21.763Z,44.00
2023-10-08T17:07:54.439Z,44.40
2023-10-08T17:10:22.947Z,44.70
2023-10-08T17:12:52.919Z,44.40
2023-10-08T17:15:26.726Z,44.90
2023-10-08T17:17:55.282Z,44.70
2023-10-08T17:20:24.854Z,44.90
2023-10-08T17:22:54.623Z,44.50
2023-10-08T17:25:23.090Z,45.10
2023-10-08T17:27:51.471Z,44.50
2023-10-08T17:30:23.333Z,44.90
2023-10-08T17:32:53.294Z,45.30
2023-10-08T17:35:22.267Z,45.90
2023-10-08T17:37:53.559Z,45.40
2023-10-08T17:40:28.756Z,44.80
2023-10-08T17:42:58.058Z,45.10
2023-10-08T17:45:35.647Z,44.90
2023-10-08T17:48:06.509Z,45.50
2023-10-08T17:50:37.532Z,45.90
2023-10-08T17:53:07.302Z,45.70
2023-10-08T17:55:37.861Z,45.80
2023-10-08T17:58:10.529Z,45.80
2023-10-08T18:00:42.227Z,46.00
2023-10-08T18:03:12.201Z,46.20
2023-10-08T18:05:42.733Z,46.90
2023-10-08T18:08:12.370Z,46.20
2023-10-08T18:10:42.402Z,46.20
2023-10-08T18:13:12.581Z,45.50
2023-10-08T18:15:40.913Z,46.00
2023-10-08T18:18:13.561Z,45.50
2023-10-08T18:20:47.738Z,45.60
2023-10-08T18:23:17.392Z,45.60
2023-10-08T18:25:48.064Z,45.70
2023-10-08T18:28:16.461Z,45.50
2023-10-08T18:30:45.597Z,45.60
2023-10-08T18:33:14.595Z,46.10
2023-10-08T18:35:43.030Z,46.20
2023-10-08T18:38:11.510Z,46.30
2023-10-08T18:40:40.039Z,46.20
2023-10-08T18:43:10.358Z,46.20
2023-10-08T18:45:42.603Z,46.00
2023-10-08T18:48:11.154Z,46.70
2023-10-08T18:50:39.592Z,47.00
2023-10-08T18:53:08.710Z,47.40
2023-10-08T18:55:52.658Z,47.40
2023-10-08T18:58:23.653Z,47.70
2023-10-08T19:00:52.446Z,47.80
2023-10-08T19:03:21.217Z,47.20
2023-10-08T19:05:49.789Z,47.40
2023-10-08T19:08:18.217Z,46.70
2023-10-08T19:10:47.109Z,46.80
2023-10-08T19:13:15.653Z,46.50
2023-10-08T19:15:47.905Z,46.30
2023-10-08T19:18:16.441Z,46.80
2023-10-08T19:20:45.833Z,47.40
2023-10-08T19:23:14.575Z,46.50
2023-10-08T19:25:48.668Z,47.00
2023-10-08T19:28:21.106Z,47.20
2023-10-08T19:30:52.314Z,47.50
2023-10-08T19:33:21.038Z,47.40
2023-10-08T19:35:50.586Z,47.70
2023-10-08T19:38:19.009Z,47.90
2023-10-08T19:40:48.610Z,47.60
2023-10-08T19:43:18.103Z,47.50
2023-10-08T19:45:47.990Z,47.10
2023-10-08T19:48:17.977Z,46.70
2023-10-08T19:50:47.837Z,47.10
2023-10-08T19:53:16.994Z,47.10
2023-10-08T19:55:48.125Z,46.70
2023-10-08T19:58:17.669Z,46.90
2023-10-08T20:00:46.174Z,46.60
2023-10-08T20:03:14.821Z,46.50
2023-10-08T20:05:48.540Z,46.80
2023-10-08T20:08:17.229Z,47.00
2023-10-08T20:10:45.913Z,47.10
2023-10-08T20:13:16.538Z,47.10
2023-10-08T20:15:48.556Z,47.00
2023-10-08T20:18:17.263Z,47.20
2023-10-08T20:20:48.438Z,47.00
2023-10-08T20:23:18.769Z,47.90
2023-10-08T20:25:52.425Z,48.40
2023-10-08T20:28:26.182Z,48.80
2023-10-08T20:30:56.084Z,48.90
2023-10-08T20:33:25.053Z,48.50
2023-10-08T20:35:54.917Z,48.30
2023-10-08T20:38:24.802Z,48.20
2023-10-08T20:40:53.263Z,47.80
2023-10-08T20:43:22.725Z,47.50
2023-10-08T20:45:51.751Z,47.90
2023-10-08T20:48:20.463Z,48.30
2023-10-08T20:50:48.856Z,48.40
2023-10-08T20:53:18.717Z,48.10
2023-10-08T20:55:47.518Z,47.80
2023-10-08T20:58:18.911Z,47.60
2023-10-08T21:00:48.205Z,47.60
2023-10-08T21:03:17.790Z,47.50
2023-10-08T21:05:48.175Z,47.50
2023-10-08T21:08:18.323Z,47.40
2023-10-08T21:11:00.749Z,47.30
2023-10-08T21:13:31.382Z,47.60
2023-10-08T21:16:01.628Z,47.70
2023-10-08T21:18:30.977Z,47.30
2023-10-08T21:20:59.934Z,47.30
2023-10-08T21:23:30.661Z,47.10
2023-10-08T21:25:58.990Z,47.20
2023-10-08T21:28:27.342Z,47.00
2023-10-08T21:30:55.891Z,47.10
2023-10-08T21:33:27.024Z,47.00
2023-10-08T21:35:55.652Z,47.10
2023-10-08T21:38:24.669Z,46.50
2023-10-08T21:41:01.864Z,46.30
2023-10-08T21:43:30.845Z,46.40
2023-10-08T21:45:59.401Z,46.50
2023-10-08T21:48:29.457Z,46.00
2023-10-08T21:50:58.001Z,45.70
2023-10-08T21:53:27.256Z,46.10
2023-10-08T21:55:56.408Z,46.40
2023-10-08T21:58:26.223Z,47.00
2023-10-08T22:01:10.402Z,46.90
2023-10-08T22:03:41.923Z,46.70
2023-10-08T22:06:10.889Z,46.80
2023-10-08T22:08:39.867Z,46.80
2023-10-08T22:11:08.854Z,46.80
2023-10-08T22:13:39.861Z,47.00
2023-10-08T22:16:18.534Z,46.40
2023-10-08T22:18:52.792Z,46.70
2023-10-08T22:21:25.508Z,46.80
2023-10-08T22:23:54.817Z,47.60
2023-10-08T22:26:25.288Z,47.10
2023-10-08T22:28:58.635Z,47.30
2023-10-08T22:31:29.313Z,47.00
2023-10-08T22:34:07.696Z,46.40
2023-10-08T22:36:48.390Z,46.40
2023-10-08T22:39:21.772Z,46.40
2023-10-08T22:41:56.807Z,46.60
2023-10-08T22:44:27.485Z,46.80
2023-10-08T22:47:11.201Z,47.20
2023-10-08T22:49:40.206Z,47.00
2023-10-08T22:52:10.167Z,47.30
2023-10-08T22:54:39.286Z,47.90
2023-10-08T22:57:07.654Z,47.90
2023-10-08T22:59:40.749Z,47.80
2023-10-08T23:02:12.112Z,47.30
2023-10-08T23:04:42.028Z,48.40
2023-10-08T23:07:11.399Z,49.20
2023-10-08T23:09:41.109Z,49.70
2023-10-08T23:12:10.913Z,50.50
2023-10-08T23:14:41.098Z,50.50
2023-10-08T23:17:13.134Z,50.20
2023-10-08T23:19:41.854Z,50.70
2023-10-08T23:22:11.624Z,51.00
2023-10-08T23:24:40.109Z,51.90
2023-10-08T23:27:10.082Z,51.40
2023-10-08T23:29:40.292Z,51.20
2023-10-08T23:32:09.704Z,51.50
2023-10-08T23:34:38.948Z,51.60
2023-10-08T23:37:22.941Z,51.70
2023-10-08T23:39:55.699Z,51.20
2023-10-08T23:42:33.083Z,51.00
2023-10-08T23:45:06.897Z,50.50
2023-10-08T23:47:38.074Z,49.80
2023-10-08T23:50:12.548Z,49.40
2023-10-08T23:52:40.892Z,48.90
2023-10-08T23:55:24.696Z,49.00
2023-10-08T23:58:07.580Z,49.30
